sensor_id;sensor_type;location;lat;lon;timestamp;P1;durP1;ratioP1;P2;durP2;ratioP2
19026;SDS011;9646;52.034;5.554;2023-07-20T00:02:06;4.60;;;3.60;;
19026;SDS011;9646;52.034;5.554;2023-07-20T00:04:33;4.90;;;3.28;;
19026;SDS011;9646;52.034;5.554;2023-07-20T00:07:00;4.03;;;3.17;;
19026;SDS011;9646;52.034;5.554;2023-07-20T00:09:27;5.88;;;4.10;;
19026;SDS011;9646;52.034;5.554;2023-07-20T00:11:54;3.65;;;3.00;;
19026;SDS011;9646;52.034;5.554;2023-07-20T00:14:21;4.72;;;3.25;;
19026;SDS011;9646;52.034;5.554;2023-07-20T00:16:51;6.10;;;3.40;;
19026;SDS011;9646;52.034;5.554;2023-07-20T00:19:21;3.85;;;2.60;;
19026;SDS011;9646;52.034;5.554;2023-07-20T00:21:48;5.25;;;2.83;;
19026;SDS011;9646;52.034;5.554;2023-07-20T00:24:15;3.60;;;2.95;;
19026;SDS011;9646;52.034;5.554;2023-07-20T00:26:43;4.22;;;2.88;;
19026;SDS011;9646;52.034;5.554;2023-07-20T00:29:10;4.82;;;2.95;;
19026;SDS011;9646;52.034;5.554;2023-07-20T00:31:37;4.05;;;2.65;;
19026;SDS011;9646;52.034;5.554;2023-07-20T00:34:06;2.53;;;2.10;;
19026;SDS011;9646;52.034;5.554;2023-07-20T00:36:33;3.55;;;2.38;;
19026;SDS011;9646;52.034;5.554;2023-07-20T00:39:00;2.83;;;2.05;;
19026;SDS011;9646;52.034;5.554;2023-07-20T00:41:27;2.70;;;1.90;;
19026;SDS011;9646;52.034;5.554;2023-07-20T00:43:55;3.42;;;1.90;;
19026;SDS011;9646;52.034;5.554;2023-07-20T00:46:22;2.75;;;1.80;;
19026;SDS011;9646;52.034;5.554;2023-07-20T00:48:50;2.95;;;1.75;;
19026;SDS011;9646;52.034;5.554;2023-07-20T00:51:19;2.08;;;1.48;;
19026;SDS011;9646;52.034;5.554;2023-07-20T00:53:47;2.72;;;1.35;;
19026;SDS011;9646;52.034;5.554;2023-07-20T00:56:14;2.70;;;1.27;;
19026;SDS011;9646;52.034;5.554;2023-07-20T00:58:41;3.03;;;1.40;;
19026;SDS011;9646;52.034;5.554;2023-07-20T01:01:08;1.52;;;1.42;;
19026;SDS011;9646;52.034;5.554;2023-07-20T01:03:35;1.15;;;1.05;;
19026;SDS011;9646;52.034;5.554;2023-07-20T01:06:04;3.28;;;1.40;;
19026;SDS011;9646;52.034;5.554;2023-07-20T01:08:37;1.15;;;1.05;;
19026;SDS011;9646;52.034;5.554;2023-07-20T01:11:09;1.67;;;1.00;;
19026;SDS011;9646;52.034;5.554;2023-07-20T01:13:37;2.20;;;1.13;;
19026;SDS011;9646;52.034;5.554;2023-07-20T01:16:04;1.50;;;1.00;;
19026;SDS011;9646;52.034;5.554;2023-07-20T01:18:31;1.48;;;1.05;;
19026;SDS011;9646;52.034;5.554;2023-07-20T01:20:59;1.35;;;0.93;;
19026;SDS011;9646;52.034;5.554;2023-07-20T01:23:30;1.67;;;1.00;;
19026;SDS011;9646;52.034;5.554;2023-07-20T01:26:05;1.05;;;0.90;;
19026;SDS011;9646;52.034;5.554;2023-07-20T01:28:37;1.35;;;1.10;;
19026;SDS011;9646;52.034;5.554;2023-07-20T01:31:18;1.30;;;1.05;;
19026;SDS011;9646;52.034;5.554;2023-07-20T01:33:48;0.65;;;0.60;;
19026;SDS011;9646;52.034;5.554;2023-07-20T01:36:17;1.40;;;0.90;;
19026;SDS011;9646;52.034;5.554;2023-07-20T01:38:45;0.90;;;0.85;;
19026;SDS011;9646;52.034;5.554;2023-07-20T01:41:12;0.90;;;0.80;;
19026;SDS011;9646;52.034;5.554;2023-07-20T01:43:40;1.70;;;0.90;;
19026;SDS011;9646;52.034;5.554;2023-07-20T01:46:07;2.13;;;1.08;;
19026;SDS011;9646;52.034;5.554;2023-07-20T01:48:35;1.17;;;0.90;;
19026;SDS011;9646;52.034;5.554;2023-07-20T01:51:02;1.10;;;0.80;;
19026;SDS011;9646;52.034;5.554;2023-07-20T01:53:29;0.82;;;0.82;;
19026;SDS011;9646;52.034;5.554;2023-07-20T01:55:56;1.27;;;0.90;;
19026;SDS011;9646;52.034;5.554;2023-07-20T01:58:24;1.77;;;1.23;;
19026;SDS011;9646;52.034;5.554;2023-07-20T02:00:51;1.55;;;0.90;;
19026;SDS011;9646;52.034;5.554;2023-07-20T02:03:18;1.30;;;1.20;;
19026;SDS011;9646;52.034;5.554;2023-07-20T02:05:48;0.90;;;0.80;;
19026;SDS011;9646;52.034;5.554;2023-07-20T02:08:15;1.10;;;1.00;;
19026;SDS011;9646;52.034;5.554;2023-07-20T02:10:44;2.55;;;1.00;;
19026;SDS011;9646;52.034;5.554;2023-07-20T02:13:12;1.20;;;1.05;;
19026;SDS011;9646;52.034;5.554;2023-07-20T02:15:39;1.42;;;1.02;;
19026;SDS011;9646;52.034;5.554;2023-07-20T02:18:07;1.02;;;0.95;;
19026;SDS011;9646;52.034;5.554;2023-07-20T02:20:34;1.58;;;1.17;;
19026;SDS011;9646;52.034;5.554;2023-07-20T02:23:02;2.10;;;0.98;;
19026;SDS011;9646;52.034;5.554;2023-07-20T02:25:29;1.05;;;0.90;;
19026;SDS011;9646;52.034;5.554;2023-07-20T02:27:56;1.30;;;1.17;;
19026;SDS011;9646;52.034;5.554;2023-07-20T02:30:24;1.35;;;0.90;;
19026;SDS011;9646;52.034;5.554;2023-07-20T02:32:52;1.42;;;1.25;;
19026;SDS011;9646;52.034;5.554;2023-07-20T02:35:19;0.93;;;0.80;;
19026;SDS011;9646;52.034;5.554;2023-07-20T02:37:46;1.15;;;0.80;;
19026;SDS011;9646;52.034;5.554;2023-07-20T02:40:15;2.97;;;1.02;;
19026;SDS011;9646;52.034;5.554;2023-07-20T02:42:42;1.10;;;1.00;;
19026;SDS011;9646;52.034;5.554;2023-07-20T02:45:09;1.63;;;1.20;;
19026;SDS011;9646;52.034;5.554;2023-07-20T02:47:37;1.08;;;1.02;;
19026;SDS011;9646;52.034;5.554;2023-07-20T02:50:05;1.05;;;0.95;;
19026;SDS011;9646;52.034;5.554;2023-07-20T02:52:32;1.77;;;1.20;;
19026;SDS011;9646;52.034;5.554;2023-07-20T02:54:59;1.25;;;1.05;;
19026;SDS011;9646;52.034;5.554;2023-07-20T02:57:28;1.60;;;1.20;;
19026;SDS011;9646;52.034;5.554;2023-07-20T02:59:55;2.40;;;1.48;;
19026;SDS011;9646;52.034;5.554;2023-07-20T03:02:22;2.05;;;1.33;;
19026;SDS011;9646;52.034;5.554;2023-07-20T03:04:49;1.60;;;1.30;;
19026;SDS011;9646;52.034;5.554;2023-07-20T03:07:16;2.05;;;1.48;;
19026;SDS011;9646;52.034;5.554;2023-07-20T03:09:43;2.03;;;1.52;;
19026;SDS011;9646;52.034;5.554;2023-07-20T03:12:10;1.27;;;1.17;;
19026;SDS011;9646;52.034;5.554;2023-07-20T03:14:38;1.23;;;1.08;;
19026;SDS011;9646;52.034;5.554;2023-07-20T03:17:05;1.45;;;1.23;;
19026;SDS011;9646;52.034;5.554;2023-07-20T03:19:33;1.25;;;1.15;;
19026;SDS011;9646;52.034;5.554;2023-07-20T03:22:00;1.42;;;1.10;;
19026;SDS011;9646;52.034;5.554;2023-07-20T03:24:27;1.48;;;1.20;;
19026;SDS011;9646;52.034;5.554;2023-07-20T03:26:54;1.58;;;1.40;;
19026;SDS011;9646;52.034;5.554;2023-07-20T03:29:21;2.65;;;1.20;;
19026;SDS011;9646;52.034;5.554;2023-07-20T03:31:49;1.30;;;1.20;;
19026;SDS011;9646;52.034;5.554;2023-07-20T03:34:16;1.83;;;1.33;;
19026;SDS011;9646;52.034;5.554;2023-07-20T03:36:43;3.72;;;1.23;;
19026;SDS011;9646;52.034;5.554;2023-07-20T03:39:11;1.60;;;1.23;;
19026;SDS011;9646;52.034;5.554;2023-07-20T03:41:38;1.17;;;1.00;;
19026;SDS011;9646;52.034;5.554;2023-07-20T03:44:05;1.98;;;1.20;;
19026;SDS011;9646;52.034;5.554;2023-07-20T03:46:32;4.68;;;1.30;;
19026;SDS011;9646;52.034;5.554;2023-07-20T03:49:01;1.73;;;1.05;;
19026;SDS011;9646;52.034;5.554;2023-07-20T03:51:28;1.60;;;1.00;;
19026;SDS011;9646;52.034;5.554;2023-07-20T03:53:55;1.27;;;1.10;;
19026;SDS011;9646;52.034;5.554;2023-07-20T03:56:22;1.23;;;1.05;;
19026;SDS011;9646;52.034;5.554;2023-07-20T03:58:49;1.60;;;1.30;;
19026;SDS011;9646;52.034;5.554;2023-07-20T04:01:16;1.50;;;1.10;;
19026;SDS011;9646;52.034;5.554;2023-07-20T04:03:44;1.65;;;1.10;;
19026;SDS011;9646;52.034;5.554;2023-07-20T04:06:13;1.67;;;0.90;;
19026;SDS011;9646;52.034;5.554;2023-07-20T04:08:41;1.42;;;1.08;;
19026;SDS011;9646;52.034;5.554;2023-07-20T04:11:08;1.77;;;1.15;;
19026;SDS011;9646;52.034;5.554;2023-07-20T04:13:36;1.08;;;1.00;;
19026;SDS011;9646;52.034;5.554;2023-07-20T04:16:03;1.30;;;1.10;;
19026;SDS011;9646;52.034;5.554;2023-07-20T04:18:30;1.25;;;1.08;;
19026;SDS011;9646;52.034;5.554;2023-07-20T04:20:57;1.55;;;1.10;;
19026;SDS011;9646;52.034;5.554;2023-07-20T04:23:25;1.65;;;1.10;;
19026;SDS011;9646;52.034;5.554;2023-07-20T04:25:52;1.80;;;1.40;;
19026;SDS011;9646;52.034;5.554;2023-07-20T04:28:19;1.50;;;1.40;;
19026;SDS011;9646;52.034;5.554;2023-07-20T04:30:48;3.03;;;1.50;;
19026;SDS011;9646;52.034;5.554;2023-07-20T04:33:16;1.50;;;1.10;;
19026;SDS011;9646;52.034;5.554;2023-07-20T04:35:47;3.20;;;1.45;;
19026;SDS011;9646;52.034;5.554;2023-07-20T04:38:14;1.60;;;1.50;;
19026;SDS011;9646;52.034;5.554;2023-07-20T04:40:43;1.58;;;1.23;;
19026;SDS011;9646;52.034;5.554;2023-07-20T04:43:11;2.33;;;1.52;;
19026;SDS011;9646;52.034;5.554;2023-07-20T04:45:38;1.30;;;1.20;;
19026;SDS011;9646;52.034;5.554;2023-07-20T04:48:06;2.30;;;1.40;;
19026;SDS011;9646;52.034;5.554;2023-07-20T04:50:34;2.55;;;1.30;;
19026;SDS011;9646;52.034;5.554;2023-07-20T04:53:01;1.55;;;1.25;;
19026;SDS011;9646;52.034;5.554;2023-07-20T04:55:28;1.98;;;1.42;;
19026;SDS011;9646;52.034;5.554;2023-07-20T04:57:57;2.28;;;1.35;;
19026;SDS011;9646;52.034;5.554;2023-07-20T05:00:24;1.88;;;1.50;;
19026;SDS011;9646;52.034;5.554;2023-07-20T05:02:51;3.58;;;1.23;;
19026;SDS011;9646;52.034;5.554;2023-07-20T05:05:18;2.72;;;1.33;;
19026;SDS011;9646;52.034;5.554;2023-07-20T05:07:45;1.70;;;1.35;;
19026;SDS011;9646;52.034;5.554;2023-07-20T05:10:12;1.50;;;1.40;;
19026;SDS011;9646;52.034;5.554;2023-07-20T05:12:39;1.83;;;1.60;;
19026;SDS011;9646;52.034;5.554;2023-07-20T05:15:08;3.65;;;1.60;;
19026;SDS011;9646;52.034;5.554;2023-07-20T05:17:36;2.17;;;1.48;;
19026;SDS011;9646;52.034;5.554;2023-07-20T05:20:04;2.75;;;1.58;;
19026;SDS011;9646;52.034;5.554;2023-07-20T05:22:31;2.13;;;1.60;;
19026;SDS011;9646;52.034;5.554;2023-07-20T05:24:58;3.00;;;1.65;;
19026;SDS011;9646;52.034;5.554;2023-07-20T05:27:26;2.67;;;1.65;;
19026;SDS011;9646;52.034;5.554;2023-07-20T05:29:53;1.52;;;1.17;;
19026;SDS011;9646;52.034;5.554;2023-07-20T05:32:21;2.00;;;1.80;;
19026;SDS011;9646;52.034;5.554;2023-07-20T05:34:51;3.55;;;2.00;;
19026;SDS011;9646;52.034;5.554;2023-07-20T05:37:18;2.45;;;1.75;;
19026;SDS011;9646;52.034;5.554;2023-07-20T05:39:45;2.25;;;1.70;;
19026;SDS011;9646;52.034;5.554;2023-07-20T05:42:12;2.30;;;2.10;;
19026;SDS011;9646;52.034;5.554;2023-07-20T05:44:39;4.03;;;2.22;;
19026;SDS011;9646;52.034;5.554;2023-07-20T05:47:06;4.03;;;1.50;;
19026;SDS011;9646;52.034;5.554;2023-07-20T05:49:35;3.25;;;1.95;;
19026;SDS011;9646;52.034;5.554;2023-07-20T05:52:02;2.10;;;1.90;;
19026;SDS011;9646;52.034;5.554;2023-07-20T05:54:29;1.70;;;1.60;;
19026;SDS011;9646;52.034;5.554;2023-07-20T05:56:56;2.10;;;1.90;;
19026;SDS011;9646;52.034;5.554;2023-07-20T05:59:24;1.80;;;1.67;;
19026;SDS011;9646;52.034;5.554;2023-07-20T06:01:53;3.13;;;1.95;;
19026;SDS011;9646;52.034;5.554;2023-07-20T06:04:20;2.78;;;1.65;;
19026;SDS011;9646;52.034;5.554;2023-07-20T06:06:48;2.17;;;1.65;;
19026;SDS011;9646;52.034;5.554;2023-07-20T06:09:16;1.38;;;1.27;;
19026;SDS011;9646;52.034;5.554;2023-07-20T06:11:43;2.83;;;1.95;;
19026;SDS011;9646;52.034;5.554;2023-07-20T06:14:10;2.55;;;1.80;;
19026;SDS011;9646;52.034;5.554;2023-07-20T06:16:37;1.88;;;1.27;;
19026;SDS011;9646;52.034;5.554;2023-07-20T06:19:04;2.63;;;2.13;;
19026;SDS011;9646;52.034;5.554;2023-07-20T06:21:31;3.03;;;1.92;;
19026;SDS011;9646;52.034;5.554;2023-07-20T06:23:59;2.00;;;1.80;;
19026;SDS011;9646;52.034;5.554;2023-07-20T06:26:26;2.22;;;1.60;;
19026;SDS011;9646;52.034;5.554;2023-07-20T06:28:55;3.35;;;1.50;;
19026;SDS011;9646;52.034;5.554;2023-07-20T06:31:22;2.30;;;1.60;;
19026;SDS011;9646;52.034;5.554;2023-07-20T06:33:49;2.72;;;1.55;;
19026;SDS011;9646;52.034;5.554;2023-07-20T06:36:17;2.15;;;1.02;;
19026;SDS011;9646;52.034;5.554;2023-07-20T06:38:44;2.45;;;0.95;;
19026;SDS011;9646;52.034;5.554;2023-07-20T06:41:13;1.15;;;1.00;;
19026;SDS011;9646;52.034;5.554;2023-07-20T06:43:40;2.15;;;0.70;;
19026;SDS011;9646;52.034;5.554;2023-07-20T06:46:07;2.28;;;0.80;;
19026;SDS011;9646;52.034;5.554;2023-07-20T06:48:34;1.27;;;1.00;;
19026;SDS011;9646;52.034;5.554;2023-07-20T06:51:01;0.88;;;0.77;;
19026;SDS011;9646;52.034;5.554;2023-07-20T06:53:28;0.90;;;0.57;;
19026;SDS011;9646;52.034;5.554;2023-07-20T06:55:55;1.40;;;0.80;;
19026;SDS011;9646;52.034;5.554;2023-07-20T06:58:24;0.70;;;0.60;;
19026;SDS011;9646;52.034;5.554;2023-07-20T07:00:51;0.82;;;0.73;;
19026;SDS011;9646;52.034;5.554;2023-07-20T07:03:18;0.75;;;0.70;;
19026;SDS011;9646;52.034;5.554;2023-07-20T07:05:46;0.77;;;0.60;;
19026;SDS011;9646;52.034;5.554;2023-07-20T07:08:13;0.73;;;0.68;;
19026;SDS011;9646;52.034;5.554;2023-07-20T07:10:41;0.63;;;0.50;;
19026;SDS011;9646;52.034;5.554;2023-07-20T07:13:08;1.88;;;0.75;;
19026;SDS011;9646;52.034;5.554;2023-07-20T07:15:36;0.90;;;0.60;;
19026;SDS011;9646;52.034;5.554;2023-07-20T07:18:03;1.98;;;0.60;;
19026;SDS011;9646;52.034;5.554;2023-07-20T07:20:30;0.63;;;0.50;;
19026;SDS011;9646;52.034;5.554;2023-07-20T07:22:57;2.95;;;0.73;;
19026;SDS011;9646;52.034;5.554;2023-07-20T07:25:25;1.55;;;0.40;;
19026;SDS011;9646;52.034;5.554;2023-07-20T07:27:53;0.60;;;0.50;;
19026;SDS011;9646;52.034;5.554;2023-07-20T07:30:22;2.63;;;0.80;;
19026;SDS011;9646;52.034;5.554;2023-07-20T07:32:50;0.57;;;0.50;;
19026;SDS011;9646;52.034;5.554;2023-07-20T07:35:17;0.68;;;0.50;;
19026;SDS011;9646;52.034;5.554;2023-07-20T07:37:44;1.52;;;0.80;;
19026;SDS011;9646;52.034;5.554;2023-07-20T07:40:11;1.05;;;0.63;;
19026;SDS011;9646;52.034;5.554;2023-07-20T07:42:39;2.00;;;0.70;;
19026;SDS011;9646;52.034;5.554;2023-07-20T07:45:07;1.42;;;0.60;;
19026;SDS011;9646;52.034;5.554;2023-07-20T07:47:34;1.25;;;0.68;;
19026;SDS011;9646;52.034;5.554;2023-07-20T07:50:03;0.98;;;0.60;;
19026;SDS011;9646;52.034;5.554;2023-07-20T07:52:30;1.13;;;0.70;;
19026;SDS011;9646;52.034;5.554;2023-07-20T07:54:57;1.08;;;0.77;;
19026;SDS011;9646;52.034;5.554;2023-07-20T07:57:25;0.65;;;0.60;;
19026;SDS011;9646;52.034;5.554;2023-07-20T07:59:52;1.25;;;0.70;;
19026;SDS011;9646;52.034;5.554;2023-07-20T08:02:19;2.05;;;0.80;;
19026;SDS011;9646;52.034;5.554;2023-07-20T08:04:46;0.98;;;0.60;;
19026;SDS011;9646;52.034;5.554;2023-07-20T08:07:14;0.88;;;0.68;;
19026;SDS011;9646;52.034;5.554;2023-07-20T08:09:41;1.27;;;0.70;;
19026;SDS011;9646;52.034;5.554;2023-07-20T08:12:08;1.15;;;0.80;;
19026;SDS011;9646;52.034;5.554;2023-07-20T08:14:35;0.93;;;0.80;;
19026;SDS011;9646;52.034;5.554;2023-07-20T08:17:03;1.02;;;0.70;;
19026;SDS011;9646;52.034;5.554;2023-07-20T08:19:30;0.88;;;0.60;;
19026;SDS011;9646;52.034;5.554;2023-07-20T08:21:57;1.83;;;0.88;;
19026;SDS011;9646;52.034;5.554;2023-07-20T08:24:25;0.80;;;0.52;;
19026;SDS011;9646;52.034;5.554;2023-07-20T08:26:52;2.05;;;0.85;;
19026;SDS011;9646;52.034;5.554;2023-07-20T08:29:19;1.27;;;0.80;;
19026;SDS011;9646;52.034;5.554;2023-07-20T08:31:47;1.40;;;0.77;;
19026;SDS011;9646;52.034;5.554;2023-07-20T08:34:14;1.52;;;0.90;;
19026;SDS011;9646;52.034;5.554;2023-07-20T08:36:41;0.80;;;0.50;;
19026;SDS011;9646;52.034;5.554;2023-07-20T08:39:08;3.08;;;0.73;;
19026;SDS011;9646;52.034;5.554;2023-07-20T08:41:36;0.50;;;0.50;;
19026;SDS011;9646;52.034;5.554;2023-07-20T08:44:04;1.80;;;1.10;;
19026;SDS011;9646;52.034;5.554;2023-07-20T08:46:32;1.35;;;0.60;;
19026;SDS011;9646;52.034;5.554;2023-07-20T08:49:00;0.80;;;0.70;;
19026;SDS011;9646;52.034;5.554;2023-07-20T08:51:28;0.70;;;0.60;;
19026;SDS011;9646;52.034;5.554;2023-07-20T08:53:56;0.98;;;0.60;;
19026;SDS011;9646;52.034;5.554;2023-07-20T08:56:23;2.40;;;0.80;;
19026;SDS011;9646;52.034;5.554;2023-07-20T08:58:52;3.35;;;1.00;;
19026;SDS011;9646;52.034;5.554;2023-07-20T09:01:19;1.50;;;0.77;;
19026;SDS011;9646;52.034;5.554;2023-07-20T09:03:47;0.82;;;0.70;;
19026;SDS011;9646;52.034;5.554;2023-07-20T09:06:14;1.05;;;0.70;;
19026;SDS011;9646;52.034;5.554;2023-07-20T09:08:42;2.05;;;0.90;;
19026;SDS011;9646;52.034;5.554;2023-07-20T09:11:11;2.03;;;0.88;;
19026;SDS011;9646;52.034;5.554;2023-07-20T09:13:38;0.57;;;0.55;;
19026;SDS011;9646;52.034;5.554;2023-07-20T09:16:06;1.13;;;0.70;;
19026;SDS011;9646;52.034;5.554;2023-07-20T09:18:33;1.67;;;0.70;;
19026;SDS011;9646;52.034;5.554;2023-07-20T09:21:02;1.38;;;0.70;;
19026;SDS011;9646;52.034;5.554;2023-07-20T09:23:30;2.20;;;0.70;;
19026;SDS011;9646;52.034;5.554;2023-07-20T09:25:57;0.77;;;0.57;;
19026;SDS011;9646;52.034;5.554;2023-07-20T09:28:25;1.15;;;0.50;;
19026;SDS011;9646;52.034;5.554;2023-07-20T09:30:52;1.42;;;0.47;;
19026;SDS011;9646;52.034;5.554;2023-07-20T09:33:24;1.52;;;0.52;;
19026;SDS011;9646;52.034;5.554;2023-07-20T09:35:51;1.10;;;0.57;;
19026;SDS011;9646;52.034;5.554;2023-07-20T09:38:18;1.08;;;0.50;;
19026;SDS011;9646;52.034;5.554;2023-07-20T09:40:45;0.80;;;0.47;;
19026;SDS011;9646;52.034;5.554;2023-07-20T09:43:12;2.78;;;0.47;;
19026;SDS011;9646;52.034;5.554;2023-07-20T09:45:40;0.73;;;0.50;;
19026;SDS011;9646;52.034;5.554;2023-07-20T09:48:07;0.47;;;0.45;;
19026;SDS011;9646;52.034;5.554;2023-07-20T09:50:40;0.50;;;0.50;;
19026;SDS011;9646;52.034;5.554;2023-07-20T09:53:09;0.80;;;0.50;;
19026;SDS011;9646;52.034;5.554;2023-07-20T09:55:38;1.58;;;0.63;;
19026;SDS011;9646;52.034;5.554;2023-07-20T09:58:06;1.02;;;0.50;;
19026;SDS011;9646;52.034;5.554;2023-07-20T10:00:35;1.02;;;0.50;;
19026;SDS011;9646;52.034;5.554;2023-07-20T10:03:03;0.85;;;0.50;;
19026;SDS011;9646;52.034;5.554;2023-07-20T10:05:31;0.98;;;0.50;;
19026;SDS011;9646;52.034;5.554;2023-07-20T10:08:01;0.98;;;0.60;;
19026;SDS011;9646;52.034;5.554;2023-07-20T10:10:30;0.45;;;0.40;;
19026;SDS011;9646;52.034;5.554;2023-07-20T10:12:59;1.20;;;0.70;;
19026;SDS011;9646;52.034;5.554;2023-07-20T10:15:28;0.90;;;0.60;;
19026;SDS011;9646;52.034;5.554;2023-07-20T10:17:57;0.90;;;0.47;;
19026;SDS011;9646;52.034;5.554;2023-07-20T10:20:26;0.90;;;0.50;;
19026;SDS011;9646;52.034;5.554;2023-07-20T10:22:54;1.20;;;0.60;;
19026;SDS011;9646;52.034;5.554;2023-07-20T10:25:23;4.00;;;1.10;;
19026;SDS011;9646;52.034;5.554;2023-07-20T10:27:51;0.93;;;0.80;;
19026;SDS011;9646;52.034;5.554;2023-07-20T10:30:18;0.57;;;0.50;;
19026;SDS011;9646;52.034;5.554;2023-07-20T10:32:45;0.55;;;0.50;;
19026;SDS011;9646;52.034;5.554;2023-07-20T10:35:14;1.20;;;0.60;;
19026;SDS011;9646;52.034;5.554;2023-07-20T10:37:53;2.35;;;0.60;;
19026;SDS011;9646;52.034;5.554;2023-07-20T10:40:26;1.48;;;0.40;;
19026;SDS011;9646;52.034;5.554;2023-07-20T10:42:56;1.15;;;0.55;;
19026;SDS011;9646;52.034;5.554;2023-07-20T10:45:32;2.22;;;0.60;;
19026;SDS011;9646;52.034;5.554;2023-07-20T10:48:02;0.73;;;0.52;;
19026;SDS011;9646;52.034;5.554;2023-07-20T10:50:29;0.70;;;0.50;;
19026;SDS011;9646;52.034;5.554;2023-07-20T10:55:49;1.13;;;0.77;;
19026;SDS011;9646;52.034;5.554;2023-07-20T10:58:32;1.40;;;0.80;;
19026;SDS011;9646;52.034;5.554;2023-07-20T11:01:00;0.50;;;0.50;;
19026;SDS011;9646;52.034;5.554;2023-07-20T11:03:28;1.33;;;0.38;;
19026;SDS011;9646;52.034;5.554;2023-07-20T11:05:56;0.63;;;0.60;;
19026;SDS011;9646;52.034;5.554;2023-07-20T11:11:23;0.82;;;0.50;;
19026;SDS011;9646;52.034;5.554;2023-07-20T11:13:53;1.10;;;0.45;;
19026;SDS011;9646;52.034;5.554;2023-07-20T11:16:25;0.70;;;0.50;;
19026;SDS011;9646;52.034;5.554;2023-07-20T11:18:58;0.40;;;0.35;;
19026;SDS011;9646;52.034;5.554;2023-07-20T11:21:25;1.35;;;0.40;;
19026;SDS011;9646;52.034;5.554;2023-07-20T11:23:53;1.23;;;0.55;;
19026;SDS011;9646;52.034;5.554;2023-07-20T11:26:20;0.65;;;0.35;;
19026;SDS011;9646;52.034;5.554;2023-07-20T11:28:49;0.50;;;0.30;;
19026;SDS011;9646;52.034;5.554;2023-07-20T11:31:17;0.52;;;0.40;;
19026;SDS011;9646;52.034;5.554;2023-07-20T11:33:44;1.33;;;0.55;;
19026;SDS011;9646;52.034;5.554;2023-07-20T11:36:11;0.70;;;0.60;;
19026;SDS011;9646;52.034;5.554;2023-07-20T11:38:40;5.63;;;3.90;;
19026;SDS011;9646;52.034;5.554;2023-07-20T11:41:08;7.28;;;5.95;;
19026;SDS011;9646;52.034;5.554;2023-07-20T11:43:37;1.83;;;0.98;;
19026;SDS011;9646;52.034;5.554;2023-07-20T11:46:06;1.23;;;0.50;;
19026;SDS011;9646;52.034;5.554;2023-07-20T11:48:33;1.33;;;0.40;;
19026;SDS011;9646;52.034;5.554;2023-07-20T11:51:00;1.23;;;0.40;;
19026;SDS011;9646;52.034;5.554;2023-07-20T11:53:27;0.68;;;0.40;;
19026;SDS011;9646;52.034;5.554;2023-07-20T11:55:54;0.68;;;0.45;;
19026;SDS011;9646;52.034;5.554;2023-07-20T11:58:21;0.68;;;0.40;;
19026;SDS011;9646;52.034;5.554;2023-07-20T12:00:48;0.70;;;0.52;;
19026;SDS011;9646;52.034;5.554;2023-07-20T12:03:17;1.17;;;0.50;;
19026;SDS011;9646;52.034;5.554;2023-07-20T12:05:44;0.75;;;0.57;;
19026;SDS011;9646;52.034;5.554;2023-07-20T12:08:12;0.50;;;0.30;;
19026;SDS011;9646;52.034;5.554;2023-07-20T12:10:39;0.73;;;0.50;;
19026;SDS011;9646;52.034;5.554;2023-07-20T12:13:09;1.05;;;0.60;;
19026;SDS011;9646;52.034;5.554;2023-07-20T12:15:37;0.80;;;0.50;;
19026;SDS011;9646;52.034;5.554;2023-07-20T12:18:04;0.75;;;0.35;;
19026;SDS011;9646;52.034;5.554;2023-07-20T12:20:33;0.95;;;0.45;;
19026;SDS011;9646;52.034;5.554;2023-07-20T12:23:02;0.75;;;0.40;;
19026;SDS011;9646;52.034;5.554;2023-07-20T12:25:39;0.68;;;0.40;;
19026;SDS011;9646;52.034;5.554;2023-07-20T12:28:06;0.70;;;0.50;;
19026;SDS011;9646;52.034;5.554;2023-07-20T12:30:34;0.22;;;0.22;;
19026;SDS011;9646;52.034;5.554;2023-07-20T12:33:01;0.40;;;0.30;;
19026;SDS011;9646;52.034;5.554;2023-07-20T12:35:29;0.70;;;0.30;;
19026;SDS011;9646;52.034;5.554;2023-07-20T12:37:57;1.38;;;0.40;;
19026;SDS011;9646;52.034;5.554;2023-07-20T12:40:24;0.82;;;0.40;;
19026;SDS011;9646;52.034;5.554;2023-07-20T12:42:52;0.88;;;0.50;;
19026;SDS011;9646;52.034;5.554;2023-07-20T12:45:19;0.55;;;0.50;;
19026;SDS011;9646;52.034;5.554;2023-07-20T12:47:46;1.02;;;0.50;;
19026;SDS011;9646;52.034;5.554;2023-07-20T12:50:13;3.47;;;1.67;;
19026;SDS011;9646;52.034;5.554;2023-07-20T12:52:40;1.50;;;0.77;;
19026;SDS011;9646;52.034;5.554;2023-07-20T12:55:09;2.58;;;0.80;;
19026;SDS011;9646;52.034;5.554;2023-07-20T12:57:37;1.05;;;0.60;;
19026;SDS011;9646;52.034;5.554;2023-07-20T13:00:05;0.52;;;0.43;;
19026;SDS011;9646;52.034;5.554;2023-07-20T13:02:33;0.88;;;0.57;;
19026;SDS011;9646;52.034;5.554;2023-07-20T13:05:00;1.25;;;0.55;;
19026;SDS011;9646;52.034;5.554;2023-07-20T13:07:30;0.68;;;0.47;;
19026;SDS011;9646;52.034;5.554;2023-07-20T13:09:57;0.70;;;0.60;;
19026;SDS011;9646;52.034;5.554;2023-07-20T13:12:27;0.55;;;0.40;;
19026;SDS011;9646;52.034;5.554;2023-07-20T13:14:54;3.33;;;0.70;;
19026;SDS011;9646;52.034;5.554;2023-07-20T13:17:21;1.80;;;0.40;;
19026;SDS011;9646;52.034;5.554;2023-07-20T13:19:49;0.55;;;0.40;;
19026;SDS011;9646;52.034;5.554;2023-07-20T13:22:16;0.40;;;0.30;;
19026;SDS011;9646;52.034;5.554;2023-07-20T13:24:44;1.33;;;0.70;;
19026;SDS011;9646;52.034;5.554;2023-07-20T13:27:13;1.05;;;0.50;;
19026;SDS011;9646;52.034;5.554;2023-07-20T13:29:42;0.98;;;0.50;;
19026;SDS011;9646;52.034;5.554;2023-07-20T13:32:09;0.77;;;0.47;;
19026;SDS011;9646;52.034;5.554;2023-07-20T13:34:37;1.50;;;0.60;;
19026;SDS011;9646;52.034;5.554;2023-07-20T13:37:04;1.40;;;0.50;;
19026;SDS011;9646;52.034;5.554;2023-07-20T13:39:31;1.02;;;0.60;;
19026;SDS011;9646;52.034;5.554;2023-07-20T13:41:58;1.42;;;0.60;;
19026;SDS011;9646;52.034;5.554;2023-07-20T13:44:26;1.77;;;0.60;;
19026;SDS011;9646;52.034;5.554;2023-07-20T13:46:55;1.30;;;0.50;;
19026;SDS011;9646;52.034;5.554;2023-07-20T13:49:22;1.70;;;0.55;;
19026;SDS011;9646;52.034;5.554;2023-07-20T13:51:49;1.65;;;0.52;;
19026;SDS011;9646;52.034;5.554;2023-07-20T13:54:16;1.58;;;0.80;;
19026;SDS011;9646;52.034;5.554;2023-07-20T13:56:43;3.13;;;0.88;;
19026;SDS011;9646;52.034;5.554;2023-07-20T13:59:10;1.30;;;0.80;;
19026;SDS011;9646;52.034;5.554;2023-07-20T14:01:37;1.50;;;0.77;;
19026;SDS011;9646;52.034;5.554;2023-07-20T14:04:06;1.55;;;0.80;;
19026;SDS011;9646;52.034;5.554;2023-07-20T14:06:34;1.90;;;1.23;;
19026;SDS011;9646;52.034;5.554;2023-07-20T14:09:01;2.47;;;0.93;;
19026;SDS011;9646;52.034;5.554;2023-07-20T14:11:29;1.15;;;0.80;;
19026;SDS011;9646;52.034;5.554;2023-07-20T14:13:56;1.23;;;0.73;;
19026;SDS011;9646;52.034;5.554;2023-07-20T14:16:24;1.52;;;0.60;;
19026;SDS011;9646;52.034;5.554;2023-07-20T14:18:51;1.10;;;0.50;;
19026;SDS011;9646;52.034;5.554;2023-07-20T14:21:20;1.20;;;0.82;;
19026;SDS011;9646;52.034;5.554;2023-07-20T14:23:48;1.58;;;0.70;;
19026;SDS011;9646;52.034;5.554;2023-07-20T14:26:15;2.70;;;0.57;;
19026;SDS011;9646;52.034;5.554;2023-07-20T14:28:42;1.90;;;0.80;;
19026;SDS011;9646;52.034;5.554;2023-07-20T14:31:10;1.02;;;0.43;;
19026;SDS011;9646;52.034;5.554;2023-07-20T14:33:37;2.70;;;0.80;;
19026;SDS011;9646;52.034;5.554;2023-07-20T14:36:04;2.53;;;0.73;;
19026;SDS011;9646;52.034;5.554;2023-07-20T14:38:33;2.95;;;0.75;;
19026;SDS011;9646;52.034;5.554;2023-07-20T14:41:01;3.17;;;0.88;;
19026;SDS011;9646;52.034;5.554;2023-07-20T14:43:28;1.30;;;0.60;;
19026;SDS011;9646;52.034;5.554;2023-07-20T14:45:55;1.13;;;0.55;;
19026;SDS011;9646;52.034;5.554;2023-07-20T14:48:22;0.93;;;0.50;;
19026;SDS011;9646;52.034;5.554;2023-07-20T14:50:49;0.70;;;0.57;;
19026;SDS011;9646;52.034;5.554;2023-07-20T14:53:16;0.90;;;0.60;;
19026;SDS011;9646;52.034;5.554;2023-07-20T14:55:45;0.82;;;0.50;;
19026;SDS011;9646;52.034;5.554;2023-07-20T14:58:12;0.47;;;0.40;;
19026;SDS011;9646;52.034;5.554;2023-07-20T15:00:39;1.05;;;0.50;;
19026;SDS011;9646;52.034;5.554;2023-07-20T15:03:06;2.15;;;0.65;;
19026;SDS011;9646;52.034;5.554;2023-07-20T15:05:34;1.77;;;0.60;;
19026;SDS011;9646;52.034;5.554;2023-07-20T15:08:03;2.45;;;0.82;;
19026;SDS011;9646;52.034;5.554;2023-07-20T15:10:31;0.85;;;0.70;;